Time;durP1;ratioP1;P1;durP2;ratioP2;P2;SDS_P1;SDS_P2;PMS_P1;PMS_P2;Temp;Humidity;BMP_temperature;BMP_pressure;BME280_temperature;BME280_humidity;BME280_pressure;Samples;Min_cycle;Max_cycle;Signal;HPM_P1;HPM_P2
2021/03/22 00:02:20;;;;;;;37.83;4.78;;;;;;;4.22;91.57;101049.53;5202298;28;20086;-78
2021/03/22 00:04:50;;;;;;;38.15;5.20;;;;;;;4.41;91.44;101054.66;5201092;28;20037;-78
2021/03/22 00:07:20;;;;;;;37.97;5.25;;;;;;;4.42;91.10;101053.78;5202576;28;20103;-78
2021/03/22 00:09:51;;;;;;;37.90;5.18;;;;;;;4.48;90.55;101053.75;5202234;28;20085;-78
2021/03/22 00:12:21;;;;;;;38.33;4.95;;;;;;;4.23;91.32;101046.94;5201859;28;20029;-78
2021/03/22 00:14:51;;;;;;;26.45;4.63;;;;;;;4.44;91.32;101049.47;5202434;28;20116;-78
2021/03/22 00:17:22;;;;;;;39.15;4.93;;;;;;;4.45;91.43;101047.75;5214356;28;20083;-78
2021/03/22 00:19:52;;;;;;;33.67;5.03;;;;;;;4.62;90.52;101039.03;5198166;28;20026;-78
2021/03/22 00:22:22;;;;;;;35.55;4.88;;;;;;;4.57;90.78;101043.38;5204818;28;20025;-78
2021/03/22 00:24:53;;;;;;;33.72;4.53;;;;;;;4.63;90.08;101047.69;5201378;28;20056;-78
2021/03/22 00:27:23;;;;;;;32.75;4.78;;;;;;;4.66;90.54;101048.50;5204075;28;20025;-78
2021/03/22 00:29:53;;;;;;;36.53;4.47;;;;;;;4.63;90.19;101053.69;5202630;28;20549;-78
2021/03/22 00:32:24;;;;;;;40.53;4.85;;;;;;;4.62;90.34;101054.56;5202600;28;20025;-78
2021/03/22 00:34:54;;;;;;;33.97;4.50;;;;;;;4.72;90.21;101053.69;5202257;28;20108;-78
2021/03/22 00:37:24;;;;;;;46.47;6.05;;;;;;;4.59;90.07;101052.00;5201921;28;20057;-78
2021/03/22 00:39:55;;;;;;;38.30;5.15;;;;;;;4.65;90.06;101051.97;5202483;28;20034;-78
2021/03/22 00:42:25;;;;;;;35.42;4.50;;;;;;;4.74;90.53;101056.25;5202302;28;20055;-77
2021/03/22 00:44:55;;;;;;;30.63;4.50;;;;;;;4.75;90.08;101058.84;5204463;28;20033;-77
2021/03/22 00:47:25;;;;;;;42.08;5.00;;;;;;;4.70;90.05;101055.41;5201899;28;20040;-77
2021/03/22 00:49:56;;;;;;;40.22;5.28;;;;;;;4.80;89.85;101056.22;5202229;28;20034;-77
2021/03/22 00:52:26;;;;;;;35.75;4.82;;;;;;;4.78;89.79;101056.22;5201416;28;20052;-77
2021/03/22 00:54:56;;;;;;;30.45;5.38;;;;;;;4.80;89.14;101061.41;5202268;28;20156;-77
2021/03/22 00:57:27;;;;;;;34.03;4.78;;;;;;;4.83;89.55;101061.38;5200971;28;20033;-79
2021/03/22 00:59:57;;;;;;;33.13;4.57;;;;;;;4.92;89.71;101054.44;5202361;28;20088;-79
2021/03/22 01:02:27;;;;;;;33.70;4.60;;;;;;;4.82;89.82;101055.34;5202666;28;20026;-78
2021/03/22 01:04:57;;;;;;;29.48;4.40;;;;;;;4.90;89.59;101045.81;5202496;28;20033;-79
2021/03/22 01:07:28;;;;;;;31.85;4.50;;;;;;;4.75;89.39;101050.19;5201359;28;20034;-78
2021/03/22 01:09:58;;;;;;;30.48;4.45;;;;;;;4.80;89.79;101051.91;5201815;28;20053;-78
2021/03/22 01:12:28;;;;;;;35.83;5.07;;;;;;;4.87;89.65;101044.97;5202455;28;20092;-79
2021/03/22 01:14:58;;;;;;;36.80;4.53;;;;;;;4.79;89.69;101046.75;5201271;28;20026;-77
2021/03/22 01:17:29;;;;;;;33.05;4.20;;;;;;;4.77;89.39;101044.16;5202014;28;20083;-78
2021/03/22 01:19:59;;;;;;;34.75;5.00;;;;;;;4.75;89.74;101045.88;5193603;28;20040;-80
2021/03/22 01:22:29;;;;;;;33.75;4.35;;;;;;;4.61;90.96;101045.09;5201274;28;20056;-79
2021/03/22 01:24:59;;;;;;;28.95;4.43;;;;;;;4.83;90.31;101040.69;5199616;28;20056;-79
2021/03/22 01:27:30;;;;;;;34.88;4.65;;;;;;;4.82;89.93;101036.38;5200258;28;20034;-79
2021/03/22 01:30:00;;;;;;;31.98;4.63;;;;;;;4.86;90.31;101031.19;5234532;22;20129;-79
2021/03/22 01:32:30;;;;;;;31.48;4.85;;;;;;;4.75;90.67;101030.34;5213250;28;20033;-80
2021/03/22 01:35:01;;;;;;;33.47;4.15;;;;;;;4.69;91.20;101037.28;5198168;28;20103;-79
2021/03/22 01:37:31;;;;;;;37.80;4.30;;;;;;;4.80;90.44;101030.34;5206842;28;20107;-79
2021/03/22 01:40:08;;;;;;;33.20;4.40;;;;;;;4.76;90.44;101029.50;5206020;28;20063;-79
2021/03/22 01:43:13;;;;;;;35.00;4.38;;;;;;;4.84;90.52;101024.28;5195697;28;20029;-79
2021/03/22 01:45:44;;;;;;;36.65;4.85;;;;;;;4.87;91.07;101027.72;5151642;28;20065;-79
2021/03/22 01:48:14;;;;;;;35.28;4.78;;;;;;;4.86;90.72;101023.41;5204998;28;20120;-79
2021/03/22 01:50:45;;;;;;;34.58;4.95;;;;;;;4.91;91.08;101021.66;5196910;28;20098;-79
2021/03/22 01:53:16;;;;;;;28.98;4.65;;;;;;;4.87;91.53;101022.53;5201285;28;20030;-79
2021/03/22 01:55:47;;;;;;;45.15;4.82;;;;;;;4.81;91.20;101016.53;5206624;28;20511;-79
2021/03/22 01:58:17;;;;;;;33.67;4.28;;;;;;;4.86;91.73;101020.81;5188700;28;20021;-78
2021/03/22 02:00:47;;;;;;;27.88;4.43;;;;;;;4.88;91.67;101019.06;5208123;28;20055;-79
2021/03/22 02:03:18;;;;;;;34.33;4.78;;;;;;;4.91;91.42;101023.34;5210088;28;20081;-79
2021/03/22 02:05:50;;;;;;;29.42;4.10;;;;;;;4.98;91.74;101019.88;5203611;28;20434;-79
2021/03/22 02:08:32;;;;;;;41.55;4.95;;;;;;;4.90;91.56;101017.34;5205873;28;20021;-79
2021/03/22 02:11:02;;;;;;;30.38;4.10;;;;;;;4.86;92.18;101019.94;5204671;28;20117;-79
2021/03/22 02:13:35;;;;;;;38.53;4.95;;;;;;;4.97;91.95;101019.00;5208768;28;20096;-79
2021/03/22 02:16:13;;;;;;;37.83;5.50;;;;;;;4.95;91.80;101020.75;5197741;28;20414;-79
2021/03/22 02:19:17;;;;;;;31.67;4.15;;;;;;;4.82;92.85;101018.25;5205777;28;20037;-79
2021/03/22 02:22:21;;;;;;;35.65;4.80;;;;;;;4.85;92.36;101018.22;5186198;28;20483;-79
2021/03/22 02:25:28;;;;;;;33.20;4.82;;;;;;;4.89;92.63;101020.78;5204609;28;20034;-79
2021/03/22 02:28:14;;;;;;;37.70;4.55;;;;;;;4.79;93.09;101013.94;5194203;28;20044;-79
2021/03/22 02:30:53;;;;;;;38.60;4.93;;;;;;;4.92;92.92;101022.47;5205950;28;20136;-79
2021/03/22 02:33:41;;;;;;;34.65;4.38;;;;;;;4.78;92.74;101024.31;5205240;28;20043;-79
2021/03/22 02:36:28;;;;;;;34.80;4.18;;;;;;;4.79;93.42;101024.28;5207133;28;20037;-79
2021/03/22 02:39:00;;;;;;;36.92;5.03;;;;;;;4.85;93.40;101023.41;5207246;28;20037;-79
2021/03/22 02:41:42;;;;;;;34.45;4.85;;;;;;;4.88;92.90;101023.38;5189990;28;20033;-79
2021/03/22 02:44:16;;;;;;;42.35;5.20;;;;;;;4.82;93.13;101020.84;5210066;28;20056;-79
2021/03/22 02:47:03;;;;;;;36.30;4.72;;;;;;;4.83;93.55;101020.81;5210421;28;20493;-79
2021/03/22 02:49:38;;;;;;;35.80;4.70;;;;;;;4.77;93.46;101026.03;5204246;28;20025;-79
2021/03/22 02:52:30;;;;;;;29.98;4.15;;;;;;;4.75;93.75;101011.38;5206074;28;20462;-79
2021/03/22 02:55:15;;;;;;;36.47;4.70;;;;;;;4.79;93.80;101013.94;5206368;28;20021;-79
2021/03/22 02:57:53;;;;;;;32.80;4.45;;;;;;;4.71;94.14;101002.78;5207445;28;20453;-79
2021/03/22 03:00:53;;;;;;;39.72;5.18;;;;;;;4.69;93.95;101007.09;5203329;28;20065;-79
2021/03/22 03:03:26;;;;;;;34.80;4.25;;;;;;;4.68;94.53;101010.56;5197853;28;20126;-79
2021/03/22 03:05:56;;;;;;;37.30;4.15;;;;;;;4.70;93.76;101018.31;5207316;28;20034;-79
2021/03/22 03:08:36;;;;;;;29.52;4.57;;;;;;;4.76;94.03;101018.25;5189414;28;20075;-79
2021/03/22 03:11:07;;;;;;;33.42;4.57;;;;;;;4.76;94.12;101013.09;5207812;28;20105;-79
2021/03/22 03:13:39;;;;;;;32.00;5.10;;;;;;;4.74;94.35;101022.59;5189728;28;20017;-79
2021/03/22 03:16:09;;;;;;;30.67;3.88;;;;;;;4.69;94.17;101022.63;5190499;28;20037;-79
2021/03/22 03:18:40;;;;;;;34.38;4.60;;;;;;;4.54;94.78;101030.47;5207327;28;20048;-79
2021/03/22 03:21:10;;;;;;;35.45;4.35;;;;;;;4.64;94.29;101028.69;5188418;28;20025;-79
2021/03/22 03:23:40;;;;;;;45.33;5.50;;;;;;;4.59;94.87;101033.88;5206653;28;20021;-79
2021/03/22 03:26:10;;;;;;;28.60;4.45;;;;;;;4.58;94.83;101039.06;5205397;28;20039;-79
2021/03/22 03:28:41;;;;;;;40.60;4.95;;;;;;;4.65;94.62;101040.78;5206340;28;20021;-79
2021/03/22 03:31:11;;;;;;;35.90;4.72;;;;;;;4.72;94.74;101047.63;5188375;28;20030;-79
2021/03/22 03:33:41;;;;;;;35.05;5.00;;;;;;;4.48;95.10;101042.56;5205724;28;20025;-79
2021/03/22 03:36:12;;;;;;;34.35;5.55;;;;;;;4.55;95.40;101046.84;5188752;28;20060;-79
2021/03/22 03:38:42;;;;;;;39.45;4.65;;;;;;;4.51;95.41;101047.72;5206898;28;21362;-79
2021/03/22 03:41:12;;;;;;;29.13;4.03;;;;;;;4.51;95.62;101058.94;5206764;28;20041;-79
2021/03/22 03:43:43;;;;;;;25.40;4.65;;;;;;;4.45;95.62;101053.78;5210477;28;20044;-79
2021/03/22 03:46:13;;;;;;;26.52;4.72;;;;;;;4.49;95.63;101049.47;5208008;28;20060;-79
2021/03/22 03:48:43;;;;;;;29.45;4.80;;;;;;;4.43;95.78;101050.34;5205676;28;20029;-79
2021/03/22 03:51:14;;;;;;;35.97;4.53;;;;;;;4.47;95.80;101057.22;5206350;28;20140;-79
2021/03/22 03:53:44;;;;;;;44.80;5.05;;;;;;;4.44;95.97;101056.38;5204640;28;20045;-79
2021/03/22 03:56:14;;;;;;;36.22;5.32;;;;;;;4.35;95.94;101057.28;5188635;28;20117;-79
2021/03/22 03:58:45;;;;;;;32.10;4.75;;;;;;;4.34;96.58;101059.84;5188650;28;20037;-79
2021/03/22 04:01:15;;;;;;;31.15;4.13;;;;;;;4.22;95.87;101058.16;5206937;28;20044;-79
2021/03/22 04:03:45;;;;;;;42.72;5.15;;;;;;;4.17;96.16;101061.63;5206128;28;20033;-79
2021/03/22 04:06:22;;;;;;;35.85;4.85;;;;;;;4.23;95.87;101059.88;5203654;28;20613;-79
2021/03/22 04:08:59;;;;;;;39.83;5.30;;;;;;;4.13;96.20;101058.16;5206277;28;20089;-79
2021/03/22 04:11:33;;;;;;;33.50;4.35;;;;;;;4.12;96.25;101053.84;5202508;28;20032;-79
2021/03/22 04:14:07;;;;;;;35.03;4.40;;;;;;;4.14;96.64;101057.31;5204617;28;20126;-79
2021/03/22 04:16:37;;;;;;;37.45;4.47;;;;;;;4.06;97.36;101065.94;5188862;28;20076;-79
2021/03/22 04:19:08;;;;;;;37.15;5.15;;;;;;;3.93;97.78;101062.50;5206246;28;20545;-79
2021/03/22 04:21:38;;;;;;;33.63;4.55;;;;;;;3.95;98.32;101059.94;5181078;28;20114;-79
2021/03/22 04:24:08;;;;;;;36.22;4.57;;;;;;;3.90;97.78;101057.34;5202420;28;20033;-79
2021/03/22 04:26:39;;;;;;;36.30;4.97;;;;;;;3.89;98.12;101055.63;5187925;28;20036;-79
2021/03/22 04:29:10;;;;;;;33.17;4.72;;;;;;;3.93;97.85;101072.00;5204555;28;20372;-79
2021/03/22 04:31:40;;;;;;;29.83;4.28;;;;;;;3.94;98.36;101063.41;5187966;28;20025;-78
2021/03/22 04:34:12;;;;;;;37.55;4.53;;;;;;;3.94;98.07;101066.81;5204188;28;20048;-79
2021/03/22 04:36:43;;;;;;;44.20;5.03;;;;;;;3.83;98.64;101071.16;5209247;28;20075;-79
2021/03/22 04:39:13;;;;;;;36.40;4.40;;;;;;;3.82;97.91;101073.72;5188227;28;20029;-79
2021/03/22 04:41:43;;;;;;;38.83;4.70;;;;;;;3.82;98.96;101078.91;5206170;28;20056;-79
2021/03/22 04:44:14;;;;;;;40.35;4.88;;;;;;;3.67;99.07;101084.06;5212871;28;20060;-79
2021/03/22 04:46:44;;;;;;;33.60;4.47;;;;;;;3.80;98.99;101085.81;5209278;28;20017;-79
2021/03/22 04:49:14;;;;;;;42.88;5.05;;;;;;;3.69;98.60;101098.72;5186194;28;20051;-79
2021/03/22 04:51:45;;;;;;;39.28;4.97;;;;;;;3.76;98.93;101097.84;5202528;28;20128;-79
2021/03/22 04:54:15;;;;;;;38.85;4.78;;;;;;;3.67;98.70;101087.53;5205196;28;20021;-79
2021/03/22 04:56:45;;;;;;;37.78;4.53;;;;;;;3.64;99.32;101082.34;5204409;28;20105;-79
2021/03/22 04:59:16;;;;;;;37.88;5.75;;;;;;;3.63;99.04;101088.38;5206373;28;20117;-79
2021/03/22 05:01:46;;;;;;;32.33;4.80;;;;;;;3.61;98.97;101095.25;5205842;28;20475;-79
2021/03/22 05:04:16;;;;;;;32.30;4.75;;;;;;;3.66;99.06;101098.72;5187949;28;20032;-79
2021/03/22 05:06:47;;;;;;;33.25;4.55;;;;;;;3.62;99.51;101091.81;5186984;28;20025;-79
2021/03/22 05:09:17;;;;;;;29.20;4.78;;;;;;;3.47;100.00;101096.13;5187370;28;20040;-79
2021/03/22 05:11:47;;;;;;;46.13;5.10;;;;;;;3.44;100.00;101096.13;5205712;28;20087;-79
2021/03/22 05:14:18;;;;;;;41.97;5.82;;;;;;;3.48;100.00;101096.97;5208182;28;20028;-79
2021/03/22 05:16:48;;;;;;;37.97;4.63;;;;;;;3.49;100.00;101096.09;5209941;28;20033;-79
2021/03/22 05:19:19;;;;;;;37.97;5.43;;;;;;;3.45;100.00;101097.84;5209667;28;20031;-79
2021/03/22 05:21:49;;;;;;;35.65;4.50;;;;;;;3.56;100.00;101095.25;5191708;28;20067;-79
2021/03/22 05:24:20;;;;;;;38.60;4.80;;;;;;;3.50;100.00;101097.84;5191664;28;20033;-79
2021/03/22 05:26:50;;;;;;;38.72;5.10;;;;;;;3.47;100.00;101084.91;5191133;28;20032;-80
2021/03/22 05:29:24;;;;;;;36.00;5.25;;;;;;;3.53;100.00;101090.09;5192563;28;20017;-79
2021/03/22 05:31:54;;;;;;;27.50;4.40;;;;;;;3.54;100.00;101094.41;5205645;28;20342;-79
2021/03/22 05:34:25;;;;;;;31.77;4.93;;;;;;;3.54;100.00;101100.41;5209548;28;20048;-79
2021/03/22 05:36:55;;;;;;;40.65;4.85;;;;;;;3.55;100.00;101102.13;5192631;28;20102;-79
2021/03/22 05:39:26;;;;;;;37.90;4.97;;;;;;;3.50;100.00;101103.03;5209250;28;20651;-79
2021/03/22 05:42:15;;;;;;;32.10;4.75;;;;;;;3.61;100.00;101107.34;5207862;28;20092;-79
2021/03/22 05:44:57;;;;;;;46.08;5.70;;;;;;;3.63;100.00;101109.03;5212889;28;20056;-79
2021/03/22 05:47:50;;;;;;;29.88;4.53;;;;;;;3.58;100.00;101107.34;5221565;28;20048;-79
2021/03/22 05:50:32;;;;;;;35.20;4.95;;;;;;;3.65;100.00;101109.91;5209688;28;20021;-79
2021/03/22 05:53:02;;;;;;;32.83;4.40;;;;;;;3.67;100.00;101105.63;5188854;28;20022;-80
2021/03/22 05:55:53;;;;;;;33.97;4.73;;;;;;;3.85;99.59;101105.63;5208015;28;20368;-79
2021/03/22 05:58:26;;;;;;;37.45;4.57;;;;;;;3.79;99.92;101104.75;5209278;28;20288;-79
2021/03/22 06:01:02;;;;;;;32.80;5.03;;;;;;;3.91;99.76;101115.94;5209004;28;20479;-79
2021/03/22 06:03:45;;;;;;;37.08;4.38;;;;;;;3.87;99.11;101108.19;5208867;28;20040;-79
2021/03/22 06:06:26;;;;;;;40.42;5.10;;;;;;;3.89;98.85;101116.81;5190438;28;20022;-79
2021/03/22 06:09:17;;;;;;;45.45;5.20;;;;;;;3.92;99.33;101116.81;5208627;28;20030;-79
2021/03/22 06:11:58;;;;;;;29.48;4.75;;;;;;;3.95;99.39;101124.56;5199095;28;20025;-80
2021/03/22 06:14:52;;;;;;;37.42;5.28;;;;;;;3.88;98.99;101121.13;5209677;28;20032;-80
2021/03/22 06:17:45;;;;;;;32.42;5.22;;;;;;;3.78;99.81;101124.56;5210875;28;20096;-80
2021/03/22 06:20:21;;;;;;;41.83;5.40;;;;;;;3.90;99.90;101119.41;5187366;28;20029;-80
2021/03/22 06:22:55;;;;;;;25.55;4.50;;;;;;;3.89;99.54;101122.84;5204661;28;20029;-80
2021/03/22 06:25:29;;;;;;;32.25;4.85;;;;;;;4.13;99.44;101122.81;5185188;28;20112;-80
2021/03/22 06:28:11;;;;;;;27.88;4.45;;;;;;;4.19;98.85;101120.25;5207558;28;20033;-79
2021/03/22 06:31:12;;;;;;;34.35;5.43;;;;;;;4.24;98.78;101127.97;5208958;28;20031;-78
2021/03/22 06:33:45;;;;;;;32.90;4.75;;;;;;;4.17;98.78;101127.16;5207510;28;20026;-80
2021/03/22 06:36:19;;;;;;;33.15;5.05;;;;;;;4.26;99.08;101127.13;5211704;28;20033;-78
2021/03/22 06:38:55;;;;;;;35.75;4.55;;;;;;;4.37;98.91;101127.97;5191397;28;20438;-79
2021/03/22 06:41:31;;;;;;;35.40;5.50;;;;;;;4.39;98.43;101126.25;5204178;28;20391;-78
2021/03/22 06:44:07;;;;;;;39.08;6.18;;;;;;;4.42;97.63;101136.59;5195891;28;20029;-78
2021/03/22 06:46:58;;;;;;;39.33;6.25;;;;;;;4.57;97.89;101136.56;5227156;28;20024;-79
2021/03/22 06:49:37;;;;;;;35.78;4.82;;;;;;;4.68;97.72;101142.56;5210114;28;20051;-80
2021/03/22 06:52:15;;;;;;;35.92;5.00;;;;;;;4.67;97.61;101146.00;5207128;28;20100;-79
2021/03/22 06:54:51;;;;;;;39.42;5.25;;;;;;;4.72;96.89;101148.59;5189274;28;20021;-80
2021/03/22 06:57:26;;;;;;;38.70;4.97;;;;;;;4.82;96.42;101153.72;5201519;28;20055;-79
2021/03/22 07:00:02;;;;;;;;;;;;;;;4.73;97.11;101156.34;5194958;28;20473;-78
2021/03/22 07:02:43;;;;;;;;;;;;;;;4.66;97.07;101152.03;5200549;28;19920;-78
2021/03/22 07:05:29;;;;;;;32.55;4.60;;;;;;;4.81;96.86;101159.78;5206443;28;19940;-79
2021/03/22 07:08:00;;;;;;;33.80;4.85;;;;;;;5.05;96.46;101157.09;5197443;28;20041;-79
2021/03/22 07:10:32;;;;;;;33.55;4.43;;;;;;;5.02;95.89;101141.59;5197274;28;20654;-79
2021/03/22 07:13:16;;;;;;;33.17;5.18;;;;;;;5.10;95.58;101154.47;5208491;28;20036;-78
2021/03/22 07:15:47;;;;;;;32.42;4.78;;;;;;;5.17;95.38;101146.66;5218748;28;20040;-80
2021/03/22 07:18:30;;;;;;;35.58;5.50;;;;;;;5.03;95.59;101156.25;5190725;28;20028;-78
2021/03/22 07:21:09;;;;;;;32.42;4.97;;;;;;;5.22;94.76;101168.25;5197163;28;20422;-77
2021/03/22 07:23:44;;;;;;;31.30;5.20;;;;;;;5.27;94.72;101156.13;5208462;28;20025;-79
2021/03/22 07:26:17;;;;;;;;;;;;;;;5.34;94.67;101168.19;5206587;28;20025;-79
2021/03/22 07:29:16;;;;;;;30.30;5.07;;;;;;;5.57;92.88;101163.75;5217555;22;19982;-77
2021/03/22 07:32:03;;;;;;;34.67;5.38;;;;;;;5.63;92.48;101176.66;5226104;28;20045;-77
2021/03/22 07:34:53;;;;;;;31.45;4.93;;;;;;;5.74;91.56;101178.31;5228206;28;20032;-77
2021/03/22 07:37:42;;;;;;;31.38;4.78;;;;;;;6.17;90.81;101174.56;5225468;28;20024;-77
2021/03/22 07:40:21;;;;;;;37.15;5.03;;;;;;;6.14;89.82;101184.13;5211667;28;20053;-76
2021/03/22 07:43:03;;;;;;;24.50;4.55;;;;;;;6.20;88.95;101189.25;5201841;28;20057;-77
2021/03/22 07:45:52;;;;;;;31.50;5.15;;;;;;;6.12;88.87;101198.84;5205444;28;20383;-77
2021/03/22 07:48:44;;;;;;;28.48;4.47;;;;;;;6.29;88.70;101207.34;5204824;28;20098;-77
2021/03/22 07:51:40;;;;;;;29.58;4.88;;;;;;;6.26;88.88;101209.97;5205139;28;20259;-77
2021/03/22 07:54:27;;;;;;;35.87;5.37;;;;;;;5.86;90.87;101209.41;5203800;28;20533;-78
2021/03/22 07:57:19;;;;;;;38.78;5.18;;;;;;;5.95;91.23;101204.13;5204569;28;20033;-78
2021/03/22 08:00:11;;;;;;;38.13;5.43;;;;;;;5.83;91.41;101206.84;5198121;28;20667;-78
2021/03/22 08:02:54;;;;;;;32.45;5.38;;;;;;;5.55;92.30;101214.75;5201911;28;20029;-77
2021/03/22 08:05:36;;;;;;;32.15;5.00;;;;;;;5.58;92.92;101212.97;5200074;28;20061;-77
2021/03/22 08:08:32;;;;;;;32.85;4.78;;;;;;;5.72;92.68;101210.31;5202922;28;20033;-77
2021/03/22 08:11:25;;;;;;;30.58;5.43;;;;;;;5.67;92.45;101214.66;5203668;28;20030;-76
2021/03/22 08:14:07;;;;;;;26.75;4.93;;;;;;;6.15;90.44;101217.84;5209230;28;20029;-78
2021/03/22 08:16:56;;;;;;;32.88;4.95;;;;;;;6.84;87.89;101211.16;5210521;28;20187;-78
2021/03/22 08:19:34;;;;;;;28.02;4.85;;;;;;;6.95;85.70;101211.91;5204680;28;20087;-76
2021/03/22 08:22:10;;;;;;;29.10;4.97;;;;;;;6.55;85.28;101221.81;5210109;28;20032;-77
2021/03/22 08:24:46;;;;;;;23.33;4.60;;;;;;;6.95;85.56;101236.13;5210060;28;20108;-77
2021/03/22 08:27:22;;;;;;;28.17;4.65;;;;;;;7.49;83.85;101225.97;5209457;28;20057;-77
2021/03/22 08:30:21;;;;;;;23.08;4.55;;;;;;;8.55;79.93;101215.69;5209191;28;20025;-77
2021/03/22 08:32:59;;;;;;;28.75;4.68;;;;;;;9.36;75.58;101227.19;5208660;28;20037;-76
2021/03/22 08:35:41;;;;;;;28.98;4.55;;;;;;;9.69;73.82;101224.72;5195252;28;20029;-78
2021/03/22 08:38:31;;;;;;;23.50;4.22;;;;;;;10.91;70.74;101227.91;5209054;28;20026;-77
2021/03/22 08:41:02;;;;;;;26.77;4.65;;;;;;;8.85;75.11;101230.81;5210804;28;20025;-78
2021/03/22 08:43:47;;;;;;;29.10;4.65;;;;;;;9.12;74.69;101234.66;5209545;28;20388;-77
2021/03/22 08:46:34;;;;;;;27.45;4.68;;;;;;;9.64;73.56;101231.81;5210047;28;20422;-76
2021/03/22 08:49:19;;;;;;;25.75;4.80;;;;;;;11.92;66.88;101216.22;5207239;28;20037;-78
2021/03/22 08:51:52;;;;;;;20.00;4.15;;;;;;;13.23;63.74;101216.13;5210158;28;20030;-77
2021/03/22 08:54:29;;;;;;;25.13;4.43;;;;;;;11.80;64.39;101221.81;5210381;28;20104;-77
2021/03/22 08:57:38;;;;;;;19.33;4.35;;;;;;;10.48;69.08;101222.03;5209803;28;20029;-78
2021/03/22 09:00:25;;;;;;;17.63;4.28;;;;;;;12.34;65.43;101232.34;5161322;28;20041;-78
2021/03/22 09:02:59;;;;;;;19.23;4.10;;;;;;;10.20;67.99;101233.19;5202363;28;20033;-79
2021/03/22 09:05:32;;;;;;;24.20;4.28;;;;;;;9.84;70.86;101227.00;5202124;28;20036;-78
2021/03/22 09:08:23;;;;;;;26.55;4.80;;;;;;;9.75;71.79;101236.78;5202006;28;20028;-79
2021/03/22 09:10:53;;;;;;;22.83;4.65;;;;;;;9.68;71.16;101224.78;5201441;28;20388;-78
2021/03/22 09:13:35;;;;;;;29.17;4.32;;;;;;;9.66;70.86;101237.00;5201657;28;20103;-78
2021/03/22 09:16:24;;;;;;;22.77;3.72;;;;;;;9.82;71.06;101233.19;5202371;28;20472;-78
2021/03/22 09:21:43;;;;;;;20.10;3.85;;;;;;;10.77;66.82;101221.28;5210780;28;20037;-77
2021/03/22 09:24:39;;;;;;;18.95;4.00;;;;;;;11.65;65.17;101226.66;5211351;28;20063;-78
2021/03/22 09:27:22;;;;;;;18.52;3.90;;;;;;;11.78;64.45;101228.88;5207418;28;20029;-76
2021/03/22 09:30:01;;;;;;;14.90;3.58;;;;;;;10.80;66.93;101242.13;5211173;28;20025;-77
2021/03/22 09:32:33;;;;;;;18.73;3.97;;;;;;;10.82;66.19;101235.13;5206027;28;20040;-76
2021/03/22 09:35:16;;;;;;;19.77;3.75;;;;;;;10.86;65.79;101241.97;5210570;28;20025;-78
2021/03/22 09:38:39;;;;;;;19.20;4.07;;;;;;;9.46;68.54;101249.63;5210473;28;20029;-78
2021/03/22 09:41:10;;;;;;;19.13;3.20;;;;;;;9.02;70.37;101249.59;5192188;28;20487;-77
2021/03/22 09:43:43;;;;;;;19.75;4.03;;;;;;;9.14;70.16;101249.38;5210040;28;20065;-78
2021/03/22 09:46:31;;;;;;;18.02;3.22;;;;;;;9.23;68.32;101249.19;5210418;28;20108;-78
2021/03/22 09:49:11;;;;;;;17.23;3.65;;;;;;;9.67;67.23;101247.41;5211180;28;20029;-78
2021/03/22 09:51:48;;;;;;;13.75;2.75;;;;;;;9.55;64.87;101247.69;5191325;28;20033;-77
2021/03/22 09:54:31;;;;;;;12.85;3.22;;;;;;;9.82;67.20;101248.84;5209551;28;20052;-77
2021/03/22 09:57:22;;;;;;;16.00;3.50;;;;;;;9.71;67.50;101248.19;5208062;28;20041;-78
2021/03/22 10:00:11;;;;;;;16.55;3.58;;;;;;;9.93;68.74;101244.22;5210258;28;20030;-78
2021/03/22 10:02:51;;;;;;;21.88;3.63;;;;;;;9.39;68.14;101242.78;5211019;28;20036;-78
2021/03/22 10:05:21;;;;;;;18.83;3.70;;;;;;;9.42;68.72;101240.09;5213523;28;20025;-78
2021/03/22 10:07:54;;;;;;;18.25;3.83;;;;;;;9.64;68.66;101246.63;5211368;28;20499;-77
2021/03/22 10:10:38;;;;;;;18.40;4.07;;;;;;;9.61;68.85;101246.66;5208732;28;20026;-76
2021/03/22 10:13:22;;;;;;;16.35;3.95;;;;;;;9.63;70.09;101243.13;5212236;28;20453;-77
2021/03/22 10:16:07;;;;;;;18.77;4.18;;;;;;;9.37;70.15;101240.22;5212662;28;20040;-78
2021/03/22 10:18:49;;;;;;;15.07;3.55;;;;;;;9.93;68.25;101244.22;5210552;28;20033;-77
2021/03/22 10:21:32;;;;;;;20.55;4.35;;;;;;;10.09;65.92;101249.13;5212242;28;20017;-77
2021/03/22 10:24:32;;;;;;;14.77;3.28;;;;;;;9.85;64.32;101244.38;5210552;28;20033;-77
2021/03/22 10:27:20;;;;;;;17.40;3.67;;;;;;;9.87;65.24;101246.97;5208481;28;20044;-77
2021/03/22 10:29:50;;;;;;;16.02;3.60;;;;;;;9.85;65.31;101254.00;5211810;28;20036;-78
2021/03/22 10:32:24;;;;;;;17.73;3.50;;;;;;;9.78;64.35;101245.44;5212896;28;20041;-77
2021/03/22 10:35:03;;;;;;;15.00;3.28;;;;;;;9.87;63.48;101241.75;5209621;28;20113;-77
2021/03/22 10:37:41;;;;;;;13.88;2.42;;;;;;;9.66;63.43;101242.22;5212791;28;20026;-77
2021/03/22 10:40:21;;;;;;;19.00;4.60;;;;;;;9.70;62.53;101246.50;5212131;28;20267;-76
2021/03/22 10:42:54;;;;;;;15.38;5.13;;;;;;;9.40;63.80;101241.88;5210822;28;20025;-77
2021/03/22 10:45:24;;;;;;;17.08;3.05;;;;;;;9.61;64.19;101241.44;5210482;28;20477;-76
2021/03/22 10:47:58;;;;;;;14.90;3.80;;;;;;;9.81;67.13;101223.63;5210444;28;20033;-78
2021/03/22 10:50:31;;;;;;;12.65;3.03;;;;;;;9.94;62.86;101235.50;5210865;28;20304;-77
2021/03/22 10:53:11;;;;;;;14.73;4.28;;;;;;;9.84;61.64;101237.44;5194454;28;20120;-77
2021/03/22 10:55:45;;;;;;;12.80;2.78;;;;;;;9.61;61.16;101238.84;5210657;28;20115;-77
2021/03/22 10:58:26;;;;;;;12.27;2.92;;;;;;;9.58;61.59;101249.34;5211640;28;20029;-77
2021/03/22 11:01:02;;;;;;;12.80;2.45;;;;;;;9.36;62.28;101248.06;5212253;28;20029;-77
2021/03/22 11:03:34;;;;;;;16.15;3.10;;;;;;;9.45;61.37;101253.97;5205689;28;20025;-77
2021/03/22 11:06:12;;;;;;;11.90;2.72;;;;;;;9.31;61.63;101244.69;5205868;28;20029;-77
2021/03/22 11:08:45;;;;;;;18.08;5.97;;;;;;;9.54;63.33;101250.31;5205049;28;20024;-77
2021/03/22 11:11:19;;;;;;;16.13;5.15;;;;;;;9.73;63.08;101249.03;5205309;28;20037;-78
2021/03/22 11:13:53;;;;;;;16.38;5.00;;;;;;;9.85;61.06;101252.22;5204839;28;20096;-77
2021/03/22 11:16:28;;;;;;;11.25;2.50;;;;;;;9.98;59.12;101243.22;5204804;28;20037;-78
2021/03/22 11:19:00;;;;;;;;;;;;;;;9.77;59.16;101241.09;5206120;28;20029;-76
2021/03/22 11:21:31;;;;;;;10.85;3.45;;;;;;;9.74;59.77;101249.00;5204468;28;19962;-77
2021/03/22 11:24:02;;;;;;;10.00;2.60;;;;;;;9.65;58.52;101243.97;5204138;28;20112;-76
2021/03/22 11:26:32;;;;;;;10.25;3.40;;;;;;;9.83;59.34;101240.13;5202857;28;20029;-77
2021/03/22 11:29:14;;;;;;;12.05;2.90;;;;;;;9.55;60.40;101244.19;5203173;28;20033;-78
2021/03/22 11:31:48;;;;;;;13.30;4.55;;;;;;;9.47;61.23;101239.13;5207182;28;20097;-78
2021/03/22 11:34:26;;;;;;;13.32;3.88;;;;;;;9.48;62.21;101246.06;5205276;28;20036;-77
2021/03/22 11:37:12;;;;;;;13.05;4.40;;;;;;;9.41;60.59;101235.78;5206372;28;20071;-77
2021/03/22 11:39:43;;;;;;;15.98;6.00;;;;;;;9.58;60.86;101236.28;5206838;28;20065;-77
2021/03/22 11:42:19;;;;;;;8.43;2.40;;;;;;;9.66;59.79;101245.69;5206256;28;20059;-77
2021/03/22 11:44:50;;;;;;;16.90;6.60;;;;;;;9.76;59.27;101243.72;5205577;28;20037;-76
2021/03/22 11:47:36;;;;;;;9.20;2.97;;;;;;;9.63;58.91;101242.31;5204864;28;20028;-76
2021/03/22 11:50:33;;;;;;;10.68;3.08;;;;;;;9.55;59.81;101236.38;5203313;28;20522;-76
2021/03/22 11:53:30;;;;;;;12.65;2.83;;;;;;;9.48;58.46;101240.00;5201466;28;20033;-77
2021/03/22 11:56:15;;;;;;;16.67;2.67;;;;;;;9.40;59.37;101234.06;5199964;28;20071;-77
2021/03/22 11:58:46;;;;;;;10.95;2.63;;;;;;;9.36;58.58;101235.03;5204626;28;20610;-77
2021/03/22 12:01:18;;;;;;;12.57;2.40;;;;;;;9.45;57.93;101232.25;5204126;28;20057;-77
2021/03/22 12:04:05;;;;;;;10.68;2.35;;;;;;;9.56;59.67;101227.66;5203590;28;20041;-77
2021/03/22 12:06:56;;;;;;;9.02;2.17;;;;;;;9.52;59.39;101237.28;5203433;28;20098;-77
2021/03/22 12:09:29;;;;;;;11.55;2.17;;;;;;;9.56;58.56;101238.09;5203901;28;20045;-77
2021/03/22 12:12:06;;;;;;;9.68;2.67;;;;;;;9.66;57.79;101232.63;5201707;28;20655;-78
2021/03/22 12:14:36;;;;;;;11.50;3.38;;;;;;;9.85;58.43;101226.13;5203506;28;20565;-77